Time;durP1;ratioP1;P1;durP2;ratioP2;P2;SDS_P1;SDS_P2;PMS_P1;PMS_P2;Temp;Humidity;BMP_temperature;BMP_pressure;BME280_temperature;BME280_humidity;BME280_pressure;Samples;Min_cycle;Max_cycle;Signal;HPM_P1;HPM_P2
2023/05/17 00:00:08;;;;;;;7.20;3.80;;;10.50;1.00;;;;;;5045414;28;20439;-84
2023/05/17 00:02:34;;;;;;;6.70;4.00;;;10.50;1.00;;;;;;5036446;28;20433;-83
2023/05/17 00:05:00;;;;;;;6.07;3.93;;;10.50;1.00;;;;;;5038315;28;20476;-84
2023/05/17 00:07:25;;;;;;;7.23;4.10;;;10.50;1.00;;;;;;5042755;28;20475;-82
2023/05/17 00:09:51;;;;;;;8.90;4.23;;;10.50;1.00;;;;;;5026891;28;20182;-81
2023/05/17 00:12:16;;;;;;;16.00;4.50;;;10.40;38.40;;;;;;5039597;28;20241;-82
2023/05/17 00:14:42;;;;;;;8.40;4.37;;;10.40;12.70;;;;;;5040642;28;20265;-84
2023/05/17 00:17:07;;;;;;;9.10;4.87;;;10.40;99.90;;;;;;5046351;28;20191;-83
2023/05/17 00:19:33;;;;;;;10.80;4.77;;;10.40;99.90;;;;;;5029050;28;20189;-83
2023/05/17 00:21:58;;;;;;;5.27;4.10;;;10.40;99.90;;;;;;5034248;28;20186;-84
2023/05/17 00:24:24;;;;;;;7.43;4.13;;;10.40;99.90;;;;;;5035234;28;20222;-82
2023/05/17 00:26:49;;;;;;;6.40;3.70;;;10.40;99.90;;;;;;5038632;28;20189;-83
2023/05/17 00:29:15;;;;;;;7.97;4.07;;;10.40;99.90;;;;;;5038092;28;20182;-82
2023/05/17 00:31:41;;;;;;;7.63;4.10;;;10.30;99.90;;;;;;5042906;28;20190;-83
2023/05/17 00:34:06;;;;;;;10.90;5.60;;;10.30;99.90;;;;;;5048643;28;20198;-83
2023/05/17 00:36:31;;;;;;;7.77;4.87;;;10.30;99.90;;;;;;5033379;28;20194;-81
2023/05/17 00:38:57;;;;;;;10.60;4.97;;;10.20;1.00;;;;;;5038293;28;20190;-82
2023/05/17 00:41:22;;;;;;;10.40;4.10;;;10.20;1.00;;;;;;5035538;28;20199;-83
2023/05/17 00:43:48;;;;;;;10.27;4.67;;;10.20;1.00;;;;;;5036055;28;20268;-82
2023/05/17 00:46:15;;;;;;;11.23;4.80;;;10.10;1.00;;;;;;5037337;28;20241;-84
2023/05/17 00:48:41;;;;;;;8.03;4.20;;;10.10;99.90;;;;;;5046419;28;20589;-82
2023/05/17 00:51:07;;;;;;;7.37;5.17;;;10.10;99.90;;;;;;5036451;28;20501;-83
2023/05/17 00:53:33;;;;;;;9.87;4.60;;;10.00;99.90;;;;;;5034124;28;20471;-83
2023/05/17 00:55:59;;;;;;;11.57;4.60;;;10.00;1.00;;;;;;5045614;28;21005;-84
2023/05/17 00:58:25;;;;;;;11.60;6.80;;;10.00;1.00;;;;;;5047658;28;20190;-83
2023/05/17 01:00:51;;;;;;;10.50;4.60;;;10.00;1.00;;;;;;5046942;28;20190;-84
2023/05/17 01:03:16;;;;;;;12.67;4.20;;;9.90;1.00;;;;;;5048985;28;20812;-83
2023/05/17 01:05:42;;;;;;;14.40;4.33;;;9.90;1.00;;;;;;5031090;28;20511;-83
2023/05/17 01:08:07;;;;;;;9.90;5.10;;;9.90;1.00;;;;;;5049130;28;20170;-81
2023/05/17 01:11:09;;;;;;;17.67;5.90;;;9.90;1.00;;;;;;5047973;28;20186;-83
2023/05/17 01:13:56;;;;;;;6.95;4.63;;;9.90;99.90;;;;;;5017148;28;20225;-81
2023/05/17 01:16:29;;;;;;;7.80;5.50;;;9.80;99.90;;;;;;5037141;28;20185;-84
2023/05/17 01:19:40;;;;;;;13.82;5.45;;;9.80;99.90;;;;;;5041192;28;20726;-82
2023/05/17 01:22:25;;;;;;;10.63;5.07;;;9.70;1.00;;;;;;5033412;28;20187;-84
2023/05/17 01:25:19;;;;;;;9.73;5.90;;;9.70;17.80;;;;;;5038265;28;20617;-83
2023/05/17 01:27:48;;;;;;;11.53;6.27;;;9.70;99.90;;;;;;5032907;28;20495;-84
2023/05/17 01:30:16;;;;;;;12.18;5.57;;;9.60;1.00;;;;;;5047010;28;20436;-82
2023/05/17 01:32:43;;;;;;;10.25;5.22;;;9.60;1.00;;;;;;5043482;28;20183;-83
2023/05/17 01:35:10;;;;;;;13.13;5.97;;;9.60;99.90;;;;;;5036134;28;20207;-83
2023/05/17 01:37:36;;;;;;;17.63;6.73;;;9.60;99.90;;;;;;5033431;28;20445;-82
2023/05/17 01:40:02;;;;;;;14.00;5.60;;;9.50;99.90;;;;;;5039489;28;20450;-83
2023/05/17 01:42:32;;;;;;;15.00;6.73;;;9.50;53.40;;;;;;5036823;28;20185;-83
2023/05/17 01:45:06;;;;;;;11.50;6.65;;;9.50;99.90;;;;;;5036584;28;20528;-83
2023/05/17 01:47:41;;;;;;;10.65;6.50;;;9.50;99.90;;;;;;5046472;28;20178;-83
2023/05/17 01:50:09;;;;;;;24.50;6.07;;;9.50;1.30;;;;;;5036495;28;20192;-84
2023/05/17 01:52:39;;;;;;;11.23;6.97;;;9.50;45.90;;;;;;5033504;28;20178;-81
2023/05/17 01:55:24;;;;;;;10.35;5.95;;;9.50;1.00;;;;;;5034475;28;20425;-82
2023/05/17 01:57:54;;;;;;;14.63;6.27;;;9.50;1.00;;;;;;5042260;28;20186;-84
2023/05/17 02:00:23;;;;;;;16.35;6.85;;;9.40;99.90;;;;;;5046818;28;20437;-82
2023/05/17 02:02:48;;;;;;;11.52;6.50;;;9.40;1.00;;;;;;5039679;28;20217;-81
2023/05/17 02:05:14;;;;;;;10.07;6.30;;;9.40;1.00;;;;;;5045838;28;20214;-83
2023/05/17 02:07:39;;;;;;;11.00;6.90;;;9.30;99.90;;;;;;5038956;28;20194;-82
2023/05/17 02:10:05;;;;;;;9.70;5.90;;;9.30;99.90;;;;;;5040925;28;20221;-83
2023/05/17 02:12:31;;;;;;;15.60;7.18;;;9.30;1.00;;;;;;5030255;28;20205;-82
2023/05/17 02:14:56;;;;;;;15.67;7.10;;;9.30;1.00;;;;;;5037268;28;20206;-82
2023/05/17 02:17:23;;;;;;;12.33;6.50;;;9.30;1.00;;;;;;5036639;28;20645;-84
2023/05/17 02:19:48;;;;;;;12.50;6.57;;;9.20;99.90;;;;;;5037479;28;20206;-81
2023/05/17 02:22:14;;;;;;;22.90;8.10;;;9.20;99.90;;;;;;5044480;28;20185;-82
2023/05/17 02:24:39;;;;;;;16.17;8.17;;;9.20;1.00;;;;;;5046847;28;20233;-83
2023/05/17 02:27:05;;;;;;;16.60;8.87;;;9.20;1.00;;;;;;5042552;28;20183;-83
2023/05/17 02:29:31;;;;;;;15.67;8.40;;;9.20;1.00;;;;;;5035873;28;20195;-81
2023/05/17 02:31:56;;;;;;;19.83;10.57;;;9.20;1.00;;;;;;5045101;28;20189;-83
2023/05/17 02:34:22;;;;;;;16.53;8.67;;;9.20;1.00;;;;;;5040062;28;20207;-81
2023/05/17 02:36:47;;;;;;;22.07;9.67;;;9.20;1.00;;;;;;5035554;28;20182;-83
2023/05/17 02:39:13;;;;;;;16.57;9.83;;;9.20;99.90;;;;;;5031989;28;20286;-83
2023/05/17 02:41:38;;;;;;;18.30;8.20;;;9.10;1.00;;;;;;5046160;28;20190;-81
2023/05/17 02:44:04;;;;;;;23.03;8.10;;;9.10;99.90;;;;;;5035883;28;20217;-83
2023/05/17 02:46:30;;;;;;;14.90;7.87;;;9.10;99.90;;;;;;5039372;28;20672;-82
2023/05/17 02:48:55;;;;;;;14.70;9.00;;;9.00;99.90;;;;;;5042408;28;20222;-83
2023/05/17 02:51:21;;;;;;;14.50;7.67;;;9.00;99.90;;;;;;5038537;28;20171;-83
2023/05/17 02:53:46;;;;;;;17.13;7.80;;;9.00;99.90;;;;;;5033443;28;20213;-80
2023/05/17 02:56:12;;;;;;;16.60;8.40;;;9.00;99.90;;;;;;5027888;28;20241;-83
2023/05/17 02:58:37;;;;;;;19.67;10.50;;;9.00;99.90;;;;;;5034850;28;20254;-81
2023/05/17 03:01:03;;;;;;;26.67;10.63;;;9.00;99.90;;;;;;5045691;28;20194;-84
2023/05/17 03:03:28;;;;;;;15.33;8.73;;;9.00;1.00;;;;;;5036770;28;20272;-82
2023/05/17 03:05:54;;;;;;;17.07;8.80;;;9.00;1.00;;;;;;5042742;28;20194;-83
2023/05/17 03:08:19;;;;;;;20.07;8.83;;;9.00;1.00;;;;;;5045233;28;20186;-83
2023/05/17 03:10:45;;;;;;;16.53;8.10;;;8.90;1.00;;;;;;5032800;28;20198;-82
2023/05/17 03:13:11;;;;;;;14.95;8.80;;;9.00;1.00;;;;;;5043536;28;20682;-83
2023/05/17 03:15:36;;;;;;;15.77;8.57;;;8.90;1.00;;;;;;5044641;28;20193;-81
2023/05/17 03:18:02;;;;;;;12.93;7.80;;;9.00;9.20;;;;;;5039653;28;20197;-82
2023/05/17 03:20:28;;;;;;;14.43;8.13;;;9.00;99.90;;;;;;5041563;28;20190;-79
2023/05/17 03:22:53;;;;;;;20.90;9.73;;;9.00;99.90;;;;;;5039492;28;20210;-81
2023/05/17 03:25:19;;;;;;;11.60;8.70;;;9.00;1.00;;;;;;5034779;28;20178;-84
2023/05/17 03:27:44;;;;;;;20.13;8.73;;;9.00;99.90;;;;;;5041000;28;20210;-83
2023/05/17 03:30:10;;;;;;;18.20;9.23;;;9.00;99.90;;;;;;5043280;28;20182;-83
2023/05/17 03:32:38;;;;;;;25.00;9.23;;;9.00;99.90;;;;;;5045326;28;20252;-82
2023/05/17 03:35:04;;;;;;;18.40;8.50;;;9.00;99.90;;;;;;5039359;28;20183;-83
2023/05/17 03:37:29;;;;;;;24.80;9.67;;;9.00;99.90;;;;;;5045713;28;20563;-82
2023/05/17 03:39:55;;;;;;;16.70;9.40;;;9.00;99.90;;;;;;5043614;28;20459;-83
2023/05/17 03:42:21;;;;;;;20.40;9.70;;;9.00;99.90;;;;;;5035711;28;20758;-82
2023/05/17 03:44:46;;;;;;;17.47;9.50;;;9.00;99.90;;;;;;5032616;28;20223;-81
2023/05/17 03:47:11;;;;;;;15.40;8.90;;;9.00;1.00;;;;;;5035251;28;20191;-83
2023/05/17 03:49:37;;;;;;;25.17;9.50;;;9.00;99.90;;;;;;5026404;28;20675;-81
2023/05/17 03:52:03;;;;;;;16.30;8.67;;;9.00;99.90;;;;;;5039568;28;20206;-82
2023/05/17 03:54:29;;;;;;;20.88;9.65;;;9.00;1.00;;;;;;5034898;28;20198;-83
2023/05/17 03:56:54;;;;;;;21.07;10.17;;;9.00;1.00;;;;;;5037619;28;20196;-83
2023/05/17 03:59:20;;;;;;;28.13;10.13;;;9.00;1.00;;;;;;5045149;28;20193;-82
2023/05/17 04:01:45;;;;;;;22.30;9.80;;;9.00;1.00;;;;;;5041979;28;20196;-83
2023/05/17 04:04:11;;;;;;;20.80;11.17;;;9.00;1.00;;;;;;5042864;28;20229;-83
2023/05/17 04:06:37;;;;;;;26.60;11.80;;;9.10;1.00;;;;;;5037630;28;20186;-81
2023/05/17 04:09:03;;;;;;;17.92;11.20;;;9.10;1.00;;;;;;5030384;28;20775;-83
2023/05/17 04:11:29;;;;;;;16.67;10.93;;;9.10;1.00;;;;;;5039151;28;20193;-84
2023/05/17 04:13:55;;;;;;;19.70;10.47;;;9.20;1.00;;;;;;5045071;28;20274;-83
2023/05/17 04:16:21;;;;;;;21.58;11.45;;;9.20;1.00;;;;;;5040067;28;20246;-83
2023/05/17 04:18:46;;;;;;;17.10;10.87;;;9.30;1.00;;;;;;5040916;28;20187;-80
2023/05/17 04:21:12;;;;;;;18.40;9.60;;;9.40;1.00;;;;;;5045526;28;20185;-83
2023/05/17 04:23:38;;;;;;;22.93;10.80;;;9.40;1.00;;;;;;5040015;28;20302;-81
2023/05/17 04:26:04;;;;;;;19.07;11.47;;;9.50;1.00;;;;;;5050189;28;20194;-82
2023/05/17 04:28:31;;;;;;;20.03;10.80;;;9.50;1.00;;;;;;5035644;28;20215;-83
2023/05/17 04:30:56;;;;;;;24.47;11.10;;;9.50;1.00;;;;;;5048139;28;20492;-82
2023/05/17 04:33:23;;;;;;;23.70;10.37;;;9.60;1.00;;;;;;5039827;28;20832;-83
2023/05/17 04:35:49;;;;;;;30.53;9.50;;;9.70;1.00;;;;;;5037091;28;20545;-82
2023/05/17 04:38:16;;;;;;;18.47;10.37;;;9.80;1.00;;;;;;5029370;28;20433;-84
2023/05/17 04:40:41;;;;;;;18.37;9.60;;;10.00;99.90;;;;;;5030250;28;20550;-82
2023/05/17 04:43:07;;;;;;;22.13;9.83;;;10.00;99.90;;;;;;5040443;28;20472;-79
2023/05/17 04:45:33;;;;;;;15.47;9.73;;;10.10;99.90;;;;;;5046085;28;20189;-84
2023/05/17 04:47:59;;;;;;;24.03;9.70;;;10.10;99.90;;;;;;5042656;28;20436;-83
2023/05/17 04:50:24;;;;;;;17.63;9.40;;;10.10;99.90;;;;;;5045110;28;20194;-81
2023/05/17 04:52:50;;;;;;;19.33;9.30;;;10.20;99.90;;;;;;5042903;28;20186;-84
2023/05/17 04:55:16;;;;;;;22.17;10.20;;;10.30;99.90;;;;;;5043295;28;20448;-83
2023/05/17 04:57:42;;;;;;;19.63;11.23;;;10.40;76.00;;;;;;5037816;28;20277;-82
2023/05/17 05:00:11;;;;;;;21.00;9.60;;;10.40;99.90;;;;;;5038078;28;20191;-82
2023/05/17 05:02:37;;;;;;;17.57;9.80;;;10.40;95.30;;;;;;5046023;28;20185;-81
2023/05/17 05:05:06;;;;;;;19.90;10.33;;;10.40;69.70;;;;;;5037395;28;20449;-82
2023/05/17 05:07:32;;;;;;;21.50;10.47;;;10.50;33.10;;;;;;5041388;28;20475;-82
2023/05/17 05:09:57;;;;;;;19.00;10.20;;;10.60;1.00;;;;;;5036791;28;20923;-83
2023/05/17 05:12:23;;;;;;;18.57;10.90;;;10.80;1.00;;;;;;5029573;28;20417;-82
2023/05/17 05:14:49;;;;;;;16.93;10.30;;;10.80;99.90;;;;;;5039977;28;20210;-82
2023/05/17 05:17:14;;;;;;;18.97;9.20;;;11.00;99.90;;;;;;5035901;28;20509;-84
2023/05/17 05:19:40;;;;;;;21.60;9.90;;;11.40;99.90;;;;;;5045035;28;20182;-81
2023/05/17 05:22:05;;;;;;;26.03;10.90;;;11.80;99.90;;;;;;5041639;28;20193;-83
2023/05/17 05:24:31;;;;;;;30.23;10.40;;;12.00;99.90;;;;;;5047828;28;20217;-84
2023/05/17 05:26:56;;;;;;;20.73;9.77;;;11.90;1.00;;;;;;5032232;28;20190;-82
2023/05/17 05:29:22;;;;;;;21.27;8.73;;;11.80;1.00;;;;;;5035134;28;20191;-84
2023/05/17 05:31:47;;;;;;;22.53;9.83;;;11.60;99.90;;;;;;5047943;28;20189;-84
2023/05/17 05:34:13;;;;;;;18.30;8.63;;;11.50;1.00;;;;;;5045332;28;20260;-83
2023/05/17 05:36:39;;;;;;;14.67;8.47;;;11.40;1.00;;;;;;5043180;28;20273;-81
2023/05/17 05:39:04;;;;;;;13.47;9.20;;;11.40;99.90;;;;;;5047630;28;20242;-82
2023/05/17 05:41:30;;;;;;;20.43;9.07;;;11.40;99.90;;;;;;5043303;28;20186;-85
2023/05/17 05:43:55;;;;;;;14.53;8.47;;;11.70;99.90;;;;;;5038254;28;20260;-83
2023/05/17 05:46:21;;;;;;;17.37;8.63;;;12.30;1.00;;;;;;5040843;28;20194;-83
2023/05/17 05:48:46;;;;;;;26.83;7.37;;;13.30;99.90;;;;;;5050100;28;20217;-83
2023/05/17 05:51:12;;;;;;;16.03;7.80;;;14.80;1.00;;;;;;5049299;28;20199;-83
2023/05/17 05:53:38;;;;;;;14.00;7.23;;;16.50;1.00;;;;;;5036381;28;20276;-83
2023/05/17 05:56:03;;;;;;;19.60;8.63;;;16.20;99.90;;;;;;5047738;28;20193;-82
2023/05/17 05:58:30;;;;;;;19.53;7.93;;;15.60;1.00;;;;;;5049484;28;20283;-84
2023/05/17 06:00:56;;;;;;;15.00;7.20;;;15.20;1.00;;;;;;5040632;28;20193;-84
2023/05/17 06:03:22;;;;;;;16.00;7.80;;;15.00;1.00;;;;;;5043056;28;20500;-83
2023/05/17 06:05:47;;;;;;;14.27;8.70;;;14.80;1.00;;;;;;5034847;28;20188;-83
2023/05/17 06:08:13;;;;;;;19.60;9.23;;;14.90;1.00;;;;;;5044277;28;20430;-83
2023/05/17 06:10:39;;;;;;;15.20;8.73;;;16.40;1.00;;;;;;5039051;28;20210;-82
2023/05/17 06:13:04;;;;;;;18.17;8.07;;;16.60;99.90;;;;;;5033999;28;20307;-84
2023/05/17 06:15:30;;;;;;;17.60;9.03;;;16.70;99.90;;;;;;5033737;28;20199;-83
2023/05/17 06:17:56;;;;;;;14.00;7.77;;;18.70;99.90;;;;;;5043268;28;20198;-82
2023/05/17 06:20:22;;;;;;;19.93;8.03;;;20.60;99.90;;;;;;5043557;28;20486;-83
2023/05/17 06:22:47;;;;;;;15.00;7.30;;;20.30;99.90;;;;;;5032521;28;20223;-81
2023/05/17 06:25:13;;;;;;;16.23;7.73;;;19.80;99.90;;;;;;5035610;28;20460;-83
2023/05/17 06:27:38;;;;;;;16.00;7.83;;;19.30;99.90;;;;;;5035252;28;20270;-83
2023/05/17 06:30:05;;;;;;;11.97;7.43;;;18.80;99.90;;;;;;5035035;28;20180;-83
2023/05/17 06:32:31;;;;;;;19.77;8.00;;;18.20;99.90;;;;;;5032367;28;20193;-84
2023/05/17 06:34:56;;;;;;;17.47;7.20;;;17.80;99.90;;;;;;5037846;28;20461;-82
2023/05/17 06:37:22;;;;;;;17.47;7.60;;;17.50;99.90;;;;;;5039010;28;20174;-83
2023/05/17 06:39:50;;;;;;;15.00;6.90;;;17.20;99.90;;;;;;5031602;28;20192;-83
2023/05/17 06:42:16;;;;;;;17.73;7.80;;;17.00;99.90;;;;;;5037108;28;20837;-81
2023/05/17 06:44:42;;;;;;;15.77;6.33;;;16.90;99.90;;;;;;5036592;28;20476;-82
2023/05/17 06:47:08;;;;;;;15.10;7.20;;;18.70;99.90;;;;;;5039645;28;20181;-84
2023/05/17 06:49:33;;;;;;;10.73;6.10;;;19.40;99.90;;;;;;5034090;28;20413;-84
2023/05/17 06:52:02;;;;;;;17.90;6.23;;;20.60;99.90;;;;;;5036455;28;20184;-84
2023/05/17 06:54:29;;;;;;;12.60;6.07;;;23.10;99.90;;;;;;5040149;28;20197;-84
2023/05/17 06:56:58;;;;;;;13.07;5.23;;;22.50;99.90;;;;;;5040424;28;20435;-83
2023/05/17 06:59:23;;;;;;;12.07;4.77;;;22.40;99.90;;;;;;5037968;28;20425;-82
2023/05/17 07:01:49;;;;;;;12.97;4.37;;;25.90;99.90;;;;;;5039929;28;20449;-84
2023/05/17 07:04:14;;;;;;;15.13;4.73;;;29.10;99.90;;;;;;5029679;28;20274;-85
2023/05/17 07:06:40;;;;;;;9.97;3.93;;;31.20;99.90;;;;;;5023719;28;20179;-86
2023/05/17 07:09:05;;;;;;;12.30;4.90;;;33.00;99.90;;;;;;5025064;28;20206;-85
2023/05/17 07:11:31;;;;;;;12.20;4.77;;;32.00;99.90;;;;;;5035228;28;20289;-84
2023/05/17 07:13:57;;;;;;;9.17;4.50;;;31.20;99.90;;;;;;5031540;28;20201;-85
2023/05/17 07:16:22;;;;;;;11.67;5.43;;;31.20;99.90;;;;;;5027195;28;20191;-84
2023/05/17 07:18:48;;;;;;;10.47;4.63;;;30.10;99.90;;;;;;5029995;28;20189;-84
2023/05/17 07:21:13;;;;;;;16.20;4.60;;;29.30;99.90;;;;;;5033748;28;20205;-85
2023/05/17 07:23:39;;;;;;;12.10;4.90;;;30.10;99.90;;;;;;5040101;28;20217;-84
2023/05/17 07:26:04;;;;;;;15.73;4.80;;;30.30;99.90;;;;;;5042954;28;20179;-81
2023/05/17 07:28:30;;;;;;;14.00;4.20;;;31.50;99.90;;;;;;5043220;28;20178;-85
2023/05/17 07:30:56;;;;;;;10.27;4.97;;;33.20;99.90;;;;;;5041728;28;20242;-84
2023/05/17 07:33:21;;;;;;;9.80;4.00;;;33.90;99.90;;;;;;5039593;28;20467;-83
2023/05/17 07:35:47;;;;;;;10.00;4.53;;;32.00;99.90;;;;;;5047522;28;20210;-85
2023/05/17 07:38:12;;;;;;;16.40;4.40;;;30.00;99.90;;;;;;5039715;28;20193;-84
2023/05/17 07:40:38;;;;;;;13.20;4.07;;;28.40;99.90;;;;;;5027486;28;20255;-85
2023/05/17 07:43:03;;;;;;;12.37;4.17;;;27.10;99.90;;;;;;5022637;28;20257;-83
2023/05/17 07:45:29;;;;;;;6.63;3.40;;;25.70;99.90;;;;;;5030005;28;20179;-83
2023/05/17 07:47:54;;;;;;;12.43;3.70;;;24.80;99.90;;;;;;5035296;28;20191;-84
2023/05/17 07:50:20;;;;;;;7.90;3.40;;;24.20;99.90;;;;;;5029951;28;20337;-84
2023/05/17 07:52:47;;;;;;;9.03;3.50;;;28.30;99.90;;;;;;5027379;28;20242;-84
2023/05/17 07:55:12;;;;;;;13.27;3.57;;;28.80;99.90;;;;;;5038901;28;20426;-85
2023/05/17 07:57:38;;;;;;;14.13;3.60;;;27.30;99.90;;;;;;5035863;28;20444;-85
2023/05/17 08:00:05;;;;;;;9.73;2.67;;;26.20;99.90;;;;;;5041307;28;20170;-84
2023/05/17 08:02:30;;;;;;;6.77;2.70;;;25.40;99.90;;;;;;5028293;28;20179;-85
2023/05/17 08:04:56;;;;;;;11.40;3.43;;;30.10;99.90;;;;;;5042012;28;20583;-85
2023/05/17 08:07:21;;;;;;;13.20;3.00;;;35.10;99.90;;;;;;5044190;28;20229;-85
2023/05/17 08:09:47;;;;;;;7.53;3.73;;;33.30;99.90;;;;;;5044257;28;20221;-85
2023/05/17 08:12:12;;;;;;;7.40;2.23;;;31.20;99.90;;;;;;5039153;28;20194;-83
2023/05/17 08:14:38;;;;;;;8.33;3.00;;;32.60;99.90;;;;;;5027215;28;20217;-84
2023/05/17 08:17:04;;;;;;;5.87;2.30;;;32.20;99.90;;;;;;5035705;28;20565;-86
2023/05/17 08:19:30;;;;;;;8.20;3.13;;;33.60;99.90;;;;;;5030805;28;20433;-84
2023/05/17 08:21:55;;;;;;;6.43;2.60;;;31.50;98.60;;;;;;5029732;28;20242;-85
2023/05/17 08:24:21;;;;;;;9.70;2.80;;;32.10;99.80;;;;;;5031501;28;20220;-84
2023/05/17 08:26:46;;;;;;;9.27;3.23;;;31.90;97.90;;;;;;5028999;28;20269;-84
2023/05/17 08:29:12;;;;;;;9.43;2.83;;;30.10;92.80;;;;;;5019415;28;20175;-84
2023/05/17 08:31:38;;;;;;;11.60;3.20;;;28.70;88.30;;;;;;5026820;28;20186;-83
2023/05/17 08:34:03;;;;;;;14.57;3.30;;;27.40;80.60;;;;;;5025318;28;20202;-83
2023/05/17 08:36:29;;;;;;;13.33;3.70;;;26.90;78.50;;;;;;5018890;28;20183;-83
2023/05/17 08:38:54;;;;;;;9.97;2.70;;;29.20;90.80;;;;;;5031238;28;20257;-84
2023/05/17 08:41:20;;;;;;;7.83;2.97;;;33.30;98.70;;;;;;5029639;28;20182;-85
2023/05/17 08:43:47;;;;;;;7.70;2.90;;;36.90;99.90;;;;;;5037979;28;20260;-83
2023/05/17 08:46:15;;;;;;;10.77;2.60;;;39.60;99.90;;;;;;5031303;28;20199;-85
2023/05/17 08:48:42;;;;;;;10.77;2.90;;;41.70;99.90;;;;;;5031730;28;20492;-85
2023/05/17 08:51:10;;;;;;;6.93;2.90;;;43.50;99.90;;;;;;5039397;28;20417;-84
2023/05/17 08:53:37;;;;;;;6.27;2.07;;;44.80;99.90;;;;;;5036288;28;20479;-83
2023/05/17 08:56:05;;;;;;;8.47;2.33;;;45.70;99.90;;;;;;5039936;28;20452;-83
2023/05/17 08:58:36;;;;;;;7.80;2.60;;;46.40;99.90;;;;;;5031038;28;20432;-83
2023/05/17 09:01:03;;;;;;;6.00;2.27;;;46.50;96.70;;;;;;5039184;28;20448;-83
2023/05/17 09:03:29;;;;;;;6.70;2.30;;;45.40;91.90;;;;;;5041314;28;20479;-83
2023/05/17 09:05:57;;;;;;;10.10;3.20;;;42.40;79.80;;;;;;5037813;28;20429;-83
2023/05/17 09:08:23;;;;;;;6.37;2.60;;;40.60;72.70;;;;;;5029820;28;20432;-82
2023/05/17 09:10:49;;;;;;;6.47;2.43;;;38.10;63.00;;;;;;5037892;28;20525;-83
2023/05/17 09:13:15;;;;;;;7.50;3.10;;;39.10;66.30;;;;;;5031764;28;20507;-82
2023/05/17 09:15:48;;;;;;;10.30;3.03;;;41.00;72.00;;;;;;5036504;28;20520;-83
2023/05/17 09:18:14;;;;;;;14.27;2.80;;;41.70;71.20;;;;;;5039519;28;20200;-84
2023/05/17 09:20:40;;;;;;;8.13;2.30;;;43.00;74.70;;;;;;5040870;28;20886;-83
2023/05/17 09:23:09;;;;;;;7.20;2.20;;;43.90;73.00;;;;;;5037511;28;20206;-84
2023/05/17 09:25:35;;;;;;;10.03;2.80;;;44.60;72.90;;;;;;5038134;28;20564;-82
2023/05/17 09:28:08;;;;;;;7.93;3.00;;;45.20;69.90;;;;;;5037758;28;20437;-83
2023/05/17 09:30:38;;;;;;;7.43;2.70;;;43.50;61.00;;;;;;5021003;28;20453;-83
2023/05/17 09:33:06;;;;;;;7.83;2.63;;;40.60;53.70;;;;;;5027364;28;20469;-83
2023/05/17 09:35:32;;;;;;;9.20;2.63;;;38.40;48.30;;;;;;5029408;28;20858;-85
2023/05/17 09:38:10;;;;;;;7.40;2.50;;;36.10;43.10;;;;;;5036262;28;20467;-83
2023/05/17 09:40:39;;;;;;;8.80;2.57;;;33.90;37.60;;;;;;5035643;28;20471;-85
2023/05/17 09:43:05;;;;;;;8.13;2.43;;;32.30;33.90;;;;;;5033364;28;20501;-85
2023/05/17 09:45:31;;;;;;;6.90;1.83;;;34.30;41.60;;;;;;5032533;28;20448;-86
2023/05/17 09:47:59;;;;;;;6.60;2.10;;;36.40;47.10;;;;;;5037761;28;20264;-86
2023/05/17 09:50:25;;;;;;;6.60;2.20;;;37.80;50.30;;;;;;5037428;28;20429;-86
2023/05/17 09:52:51;;;;;;;6.93;2.10;;;39.40;54.80;;;;;;5032345;28;20500;-83
2023/05/17 09:55:17;;;;;;;6.43;2.67;;;40.50;56.00;;;;;;5040576;28;20170;-86
2023/05/17 09:57:43;;;;;;;4.90;2.20;;;41.20;56.30;;;;;;5040691;28;20217;-84
2023/05/17 10:00:12;;;;;;;6.40;2.80;;;41.60;56.80;;;;;;5037935;28;20429;-84
2023/05/17 10:02:40;;;;;;;4.40;2.10;;;41.90;55.30;;;;;;5037741;28;20186;-85
2023/05/17 10:05:10;;;;;;;8.70;2.90;;;42.00;54.80;;;;;;5035383;28;20465;-83
2023/05/17 10:07:36;;;;;;;7.13;2.70;;;42.00;54.60;;;;;;5040178;28;20528;-84
2023/05/17 10:10:03;;;;;;;5.93;2.50;;;42.00;52.30;;;;;;5040826;28;20437;-84
2023/05/17 10:12:32;;;;;;;8.53;2.70;;;41.70;51.30;;;;;;5039903;28;20494;-83
2023/05/17 10:14:59;;;;;;;4.97;1.93;;;42.00;51.20;;;;;;5039089;28;20474;-83
2023/05/17 10:17:28;;;;;;;8.30;3.63;;;42.00;50.20;;;;;;5040530;28;20445;-83
2023/05/17 10:19:55;;;;;;;7.53;2.80;;;42.10;49.60;;;;;;5036720;28;20972;-83
2023/05/17 10:22:21;;;;;;;4.37;1.73;;;41.40;47.00;;;;;;5036842;28;20862;-83
2023/05/17 10:24:48;;;;;;;7.23;2.37;;;40.70;45.60;;;;;;5037634;28;20452;-81
2023/05/17 10:27:15;;;;;;;8.87;3.03;;;40.00;42.00;;;;;;5039879;28;20432;-83
2023/05/17 10:29:41;;;;;;;11.77;2.80;;;39.90;43.10;;;;;;5038487;28;20433;-82
2023/05/17 10:32:07;;;;;;;7.33;2.80;;;38.60;39.40;;;;;;5034027;28;20488;-82
2023/05/17 10:34:37;;;;;;;11.07;3.53;;;36.70;34.70;;;;;;5029769;28;20484;-84
2023/05/17 10:37:04;;;;;;;8.20;3.23;;;36.30;35.00;;;;;;5040085;28;20225;-82
2023/05/17 10:39:37;;;;;;;7.63;2.50;;;35.50;33.70;;;;;;5039457;28;20440;-82
2023/05/17 10:42:06;;;;;;;7.10;2.97;;;34.30;31.30;;;;;;5039851;28;20511;-85
2023/05/17 10:44:33;;;;;;;8.30;2.53;;;34.90;34.60;;;;;;5037949;28;20498;-85
2023/05/17 10:46:59;;;;;;;5.20;2.07;;;36.20;38.70;;;;;;5037844;28;20437;-86
2023/05/17 10:49:32;;;;;;;9.30;2.63;;;36.90;41.50;;;;;;5039745;28;20476;-86
2023/05/17 10:52:10;;;;;;;8.83;2.70;;;37.70;42.30;;;;;;5031752;28;20198;-86
2023/05/17 10:54:39;;;;;;;6.67;2.67;;;38.20;43.80;;;;;;5037047;28;20476;-85
2023/05/17 10:57:06;;;;;;;8.83;2.73;;;38.70;44.80;;;;;;5036048;28;20467;-85
2023/05/17 10:59:32;;;;;;;13.40;2.80;;;38.90;45.50;;;;;;5038050;28;20464;-85
2023/05/17 11:02:05;;;;;;;9.27;2.80;;;38.40;43.20;;;;;;5034987;28;20447;-86
2023/05/17 11:04:40;;;;;;;9.80;3.33;;;37.30;39.60;;;;;;5037355;28;20853;-86
2023/05/17 11:07:18;;;;;;;6.70;2.83;;;36.30;36.80;;;;;;5038220;28;20451;-85
2023/05/17 11:09:50;;;;;;;6.93;3.30;;;36.60;38.70;;;;;;5033180;28;20441;-87
2023/05/17 11:12:35;;;;;;;7.43;3.43;;;37.00;40.20;;;;;;5036152;28;20436;-86
2023/05/17 11:15:07;;;;;;;9.53;2.73;;;37.30;40.60;;;;;;5031068;28;20492;-85
2023/05/17 11:17:35;;;;;;;4.93;2.00;;;37.50;41.60;;;;;;5038477;28;20428;-86
2023/05/17 11:20:09;;;;;;;6.70;2.13;;;37.50;40.80;;;;;;5030405;28;20445;-84
2023/05/17 11:22:38;;;;;;;7.60;2.47;;;37.50;40.00;;;;;;5050149;28;20444;-85
2023/05/17 11:25:11;;;;;;;6.10;2.47;;;37.60;41.00;;;;;;5033471;28;20444;-86
2023/05/17 11:27:42;;;;;;;7.70;2.17;;;37.60;40.60;;;;;;5034383;28;20441;-85
2023/05/17 11:30:25;;;;;;;7.63;2.30;;;37.30;38.20;;;;;;5039383;28;20455;-86
2023/05/17 11:32:58;;;;;;;6.30;1.90;;;37.40;38.40;;;;;;5038102;28;20444;-87
2023/05/17 11:35:27;;;;;;;4.53;2.10;;;37.50;39.10;;;;;;5040534;28;20437;-84
2023/05/17 11:38:10;;;;;;;4.90;2.00;;;37.50;38.80;;;;;;5037097;28;20424;-86
2023/05/17 11:40:36;;;;;;;7.33;2.13;;;37.30;37.20;;;;;;5039308;28;20877;-86
2023/05/17 11:43:22;;;;;;;6.50;2.50;;;35.50;31.90;;;;;;5029451;28;20464;-86
2023/05/17 11:46:00;;;;;;;10.23;2.63;;;35.80;33.50;;;;;;5039681;28;20436;-86
2023/05/17 11:48:26;;;;;;;5.93;1.90;;;36.30;35.90;;;;;;5032759;28;20440;-86
2023/05/17 11:50:53;;;;;;;6.67;2.20;;;36.40;36.20;;;;;;5041141;28;20451;-85
2023/05/17 11:53:19;;;;;;;9.80;2.23;;;36.20;35.20;;;;;;5032007;28;20475;-86
2023/05/17 11:55:47;;;;;;;10.87;2.77;;;34.80;31.10;;;;;;5040264;28;20499;-84
2023/05/17 11:58:15;;;;;;;7.33;2.17;;;33.80;28.80;;;;;;5039797;28;20502;-86
2023/05/17 12:00:41;;;;;;;5.57;2.00;;;33.60;29.00;;;;;;5032227;28;20503;-86
2023/05/17 12:03:16;;;;;;;7.97;2.23;;;34.10;30.70;;;;;;5040056;28;20472;-86
2023/05/17 12:05:42;;;;;;;5.37;2.00;;;34.30;32.20;;;;;;5035172;28;20490;-86
2023/05/17 12:08:07;;;;;;;6.67;2.60;;;33.10;29.00;;;;;;5031341;28;20461;-86
2023/05/17 12:10:33;;;;;;;4.97;2.60;;;31.70;27.00;;;;;;5033531;28;20456;-86
2023/05/17 12:12:59;;;;;;;5.87;2.33;;;30.60;25.00;;;;;;5030819;28;20623;-85
2023/05/17 12:15:27;;;;;;;6.13;2.27;;;30.60;25.00;;;;;;5034367;28;20178;-86
2023/05/17 12:17:54;;;;;;;5.47;2.20;;;31.50;27.60;;;;;;5029048;28;20571;-88
2023/05/17 12:20:19;;;;;;;4.93;1.97;;;32.40;30.60;;;;;;5036404;28;20456;-86
2023/05/17 12:22:55;;;;;;;10.03;2.33;;;33.20;33.60;;;;;;5034348;28;20449;-85
2023/05/17 12:25:24;;;;;;;4.60;2.37;;;34.00;35.80;;;;;;5035852;28;20277;-85
2023/05/17 12:27:50;;;;;;;7.70;2.90;;;34.20;35.40;;;;;;5034846;28;21010;-86
2023/05/17 12:30:16;;;;;;;6.73;2.50;;;33.70;34.10;;;;;;5038582;28;20433;-85
2023/05/17 12:32:42;;;;;;;4.87;1.83;;;33.20;32.10;;;;;;5043315;28;20416;-86
2023/05/17 12:35:09;;;;;;;3.90;2.00;;;32.40;30.10;;;;;;5035983;28;20182;-86
2023/05/17 12:37:35;;;;;;;6.97;2.33;;;32.00;29.40;;;;;;5043417;28;20441;-86
2023/05/17 12:40:03;;;;;;;6.03;1.93;;;32.10;29.50;;;;;;5041899;28;20436;-85
2023/05/17 12:42:30;;;;;;;6.67;2.17;;;32.30;30.90;;;;;;5042522;28;20806;-85
2023/05/17 12:44:57;;;;;;;3.97;2.00;;;32.50;32.20;;;;;;5041240;28;20480;-86